Time;durP1;ratioP1;P1;durP2;ratioP2;P2;SDS_P1;SDS_P2;PMS_P1;PMS_P2;Temp;Humidity;BMP_temperature;BMP_pressure;BME280_temperature;BME280_humidity;BME280_pressure;Samples;Min_cycle;Max_cycle;Signal;HPM_P1;HPM_P2
2023/04/09 00:00:44;;;;;;;81.95;59.78;;;7.50;90.70;;;;;;5090295;28;20078;-47
2023/04/09 00:03:11;;;;;;;79.45;56.13;;;7.50;90.60;;;;;;5075131;28;20358;-46
2023/04/09 00:05:39;;;;;;;73.47;53.53;;;7.40;90.60;;;;;;5076030;28;20080;-46
2023/04/09 00:08:09;;;;;;;74.47;54.92;;;7.50;90.70;;;;;;5077935;28;20057;-45
2023/04/09 00:10:36;;;;;;;;;;;7.50;90.60;;;;;;5095865;28;20392;-44
2023/04/09 00:13:05;;;;;;;79.10;53.35;;;7.40;90.60;;;;;;5058767;28;20288;-48
2023/04/09 00:15:35;;;;;;;77.88;53.63;;;7.50;90.60;;;;;;5057665;28;20026;-45
2023/04/09 00:18:02;;;;;;;76.22;53.67;;;7.50;90.70;;;;;;5075318;28;20052;-45
2023/04/09 00:20:29;;;;;;;81.07;56.97;;;7.50;90.60;;;;;;5057121;28;20032;-46
2023/04/09 00:22:57;;;;;;;78.30;56.45;;;7.50;90.70;;;;;;5075041;28;20040;-48
2023/04/09 00:25:24;;;;;;;78.10;56.50;;;7.60;90.70;;;;;;5074762;28;20039;-46
2023/04/09 00:27:50;;;;;;;76.30;55.92;;;7.60;90.70;;;;;;5074848;28;20358;-46
2023/04/09 00:30:17;;;;;;;75.20;53.38;;;7.60;90.60;;;;;;5074701;28;20037;-47
2023/04/09 00:32:46;;;;;;;83.50;54.97;;;7.60;90.60;;;;;;5075446;28;20032;-45
2023/04/09 00:35:13;;;;;;;81.47;58.05;;;7.60;90.60;;;;;;5075154;28;20051;-50
2023/04/09 00:37:40;;;;;;;72.57;53.72;;;7.60;90.70;;;;;;5057307;28;20043;-45
2023/04/09 00:40:08;;;;;;;74.68;53.13;;;7.60;90.70;;;;;;5056989;28;20025;-45
2023/04/09 00:42:36;;;;;;;77.03;54.20;;;7.60;90.70;;;;;;5075802;28;20047;-46
2023/04/09 00:45:05;;;;;;;74.22;52.47;;;7.60;90.70;;;;;;5076159;28;20056;-46
2023/04/09 00:47:36;;;;;;;72.03;52.38;;;7.70;90.80;;;;;;5077580;28;20454;-46
2023/04/09 00:50:04;;;;;;;78.57;55.25;;;7.60;90.70;;;;;;5092094;28;20039;-44
2023/04/09 00:52:32;;;;;;;74.43;53.10;;;7.70;90.70;;;;;;5056336;28;20028;-46
2023/04/09 00:55:04;;;;;;;76.25;54.47;;;7.70;90.70;;;;;;5074604;28;20020;-45
2023/04/09 00:57:34;;;;;;;74.93;52.88;;;7.60;90.80;;;;;;5074678;28;20425;-46
2023/04/09 01:00:03;;;;;;;78.70;54.55;;;7.70;90.80;;;;;;5074296;28;20028;-45
2023/04/09 01:02:30;;;;;;;75.90;52.40;;;7.70;90.70;;;;;;5074440;28;20027;-46
2023/04/09 01:04:57;;;;;;;82.10;56.10;;;7.70;90.80;;;;;;5056636;28;20028;-45
2023/04/09 01:07:52;;;;;;;83.38;57.78;;;7.60;90.60;;;;;;5073730;28;20025;-47
2023/04/09 01:10:20;;;;;;;78.10;56.65;;;7.70;90.80;;;;;;5058009;28;20080;-45
2023/04/09 01:12:54;;;;;;;78.38;56.22;;;7.70;90.90;;;;;;5073741;28;20032;-50
2023/04/09 01:15:28;;;;;;;80.47;55.53;;;7.70;90.80;;;;;;5073804;28;20452;-46
2023/04/09 01:18:21;;;;;;;82.80;56.38;;;7.70;90.80;;;;;;5040036;28;20127;-44
2023/04/09 01:20:56;;;;;;;87.78;57.95;;;7.70;90.80;;;;;;5087903;28;20024;-46
2023/04/09 01:23:42;;;;;;;82.93;59.97;;;7.80;90.90;;;;;;5073948;28;20043;-45
2023/04/09 01:26:26;;;;;;;88.63;58.78;;;7.70;90.70;;;;;;5073690;28;20039;-46
2023/04/09 01:28:54;;;;;;;84.15;57.92;;;7.70;90.80;;;;;;5056817;28;20025;-46
2023/04/09 01:31:30;;;;;;;89.07;59.45;;;7.80;90.80;;;;;;5083688;28;20036;-46
2023/04/09 01:33:59;;;;;;;84.95;57.75;;;7.70;90.70;;;;;;5076497;28;20161;-45
2023/04/09 01:36:30;;;;;;;84.78;59.65;;;7.80;90.80;;;;;;5093495;28;20027;-45
2023/04/09 01:38:59;;;;;;;83.82;56.97;;;7.80;90.80;;;;;;5086234;28;20133;-46
2023/04/09 01:41:31;;;;;;;;;;;7.80;90.80;;;;;;5073851;28;20055;-46
2023/04/09 01:44:00;;;;;;;85.53;59.30;;;7.80;90.80;;;;;;5073054;28;19916;-46
2023/04/09 01:46:28;;;;;;;88.85;59.20;;;7.80;90.80;;;;;;5081819;28;20024;-44
2023/04/09 01:48:56;;;;;;;87.78;57.70;;;7.80;90.90;;;;;;5075442;28;20373;-46
2023/04/09 01:51:23;;;;;;;80.00;57.30;;;7.80;90.90;;;;;;5087611;28;20464;-45
2023/04/09 01:53:50;;;;;;;83.38;58.80;;;7.80;90.90;;;;;;5093633;28;20024;-47
2023/04/09 01:56:17;;;;;;;93.30;57.30;;;7.80;90.80;;;;;;5086987;28;20025;-46
2023/04/09 01:58:43;;;;;;;87.43;58.90;;;7.80;90.70;;;;;;5073262;28;20028;-48
2023/04/09 02:01:26;;;;;;;80.82;56.25;;;7.80;90.80;;;;;;5075750;28;20034;-45
2023/04/09 02:04:02;;;;;;;81.38;56.90;;;7.80;90.80;;;;;;5073335;28;20339;-48
2023/04/09 02:06:41;;;;;;;84.22;56.67;;;7.70;90.70;;;;;;5055603;28;20036;-45
2023/04/09 02:09:11;;;;;;;88.30;60.53;;;7.70;90.80;;;;;;5072981;28;20036;-47
2023/04/09 02:11:42;;;;;;;83.53;58.38;;;7.80;90.80;;;;;;5072100;28;20087;-47
2023/04/09 02:14:09;;;;;;;87.03;61.50;;;7.80;90.70;;;;;;5072882;28;20071;-46
2023/04/09 02:16:37;;;;;;;87.47;59.47;;;7.80;90.70;;;;;;5072430;28;20457;-46
2023/04/09 02:19:05;;;;;;;79.47;58.22;;;7.80;90.60;;;;;;5077425;28;20172;-45
2023/04/09 02:21:32;;;;;;;86.68;61.50;;;7.80;90.70;;;;;;5093454;28;20016;-45
2023/04/09 02:23:59;;;;;;;80.05;54.00;;;7.70;90.70;;;;;;5075461;28;20028;-46
2023/04/09 02:26:24;;;;;;;91.80;61.22;;;7.80;90.70;;;;;;5075246;28;20033;-48
2023/04/09 02:28:53;;;;;;;91.45;63.90;;;7.70;90.50;;;;;;5093475;28;20106;-46
2023/04/09 02:31:20;;;;;;;93.55;64.95;;;7.80;90.70;;;;;;5073209;28;20118;-46
2023/04/09 02:33:50;;;;;;;99.65;64.60;;;7.80;90.70;;;;;;5072924;28;20028;-46
2023/04/09 02:36:16;;;;;;;96.43;63.88;;;7.70;90.60;;;;;;5073324;28;20319;-47
2023/04/09 02:38:43;;;;;;;98.05;63.92;;;7.70;90.70;;;;;;5054953;28;20025;-45
2023/04/09 02:41:10;;;;;;;95.63;63.67;;;7.80;90.70;;;;;;5072343;28;20032;-47
2023/04/09 02:43:36;;;;;;;94.90;64.90;;;7.80;90.80;;;;;;5072231;28;20430;-48
2023/04/09 02:46:03;;;;;;;89.38;61.83;;;7.80;90.80;;;;;;5091597;28;20093;-47
2023/04/09 02:48:34;;;;;;;96.63;63.45;;;7.80;90.80;;;;;;5093012;28;20032;-46
2023/04/09 02:51:03;;;;;;;101.07;66.43;;;7.80;90.90;;;;;;5080228;28;20323;-47
2023/04/09 02:53:30;;;;;;;92.40;66.10;;;7.90;90.80;;;;;;5072771;28;20028;-48
2023/04/09 02:55:57;;;;;;;89.28;61.05;;;7.90;90.90;;;;;;5080067;28;20446;-46
2023/04/09 02:58:26;;;;;;;91.72;59.88;;;7.90;91.00;;;;;;5092901;28;20035;-47
2023/04/09 03:00:53;;;;;;;97.72;66.50;;;7.90;91.00;;;;;;5089200;28;20025;-45
2023/04/09 03:03:20;;;;;;;88.07;63.13;;;7.90;91.00;;;;;;5072277;28;20029;-49
2023/04/09 03:05:47;;;;;;;92.95;65.00;;;7.90;91.00;;;;;;5072460;28;20025;-46
2023/04/09 03:08:14;;;;;;;98.18;65.97;;;7.90;90.90;;;;;;5061976;28;20024;-46
2023/04/09 03:10:41;;;;;;;93.63;66.43;;;7.80;91.00;;;;;;5072668;28;20109;-46
2023/04/09 03:13:08;;;;;;;91.43;63.55;;;7.80;91.00;;;;;;5054823;28;20431;-47
2023/04/09 03:15:34;;;;;;;96.68;70.75;;;7.80;91.10;;;;;;5084462;28;20032;-45
2023/04/09 03:18:01;;;;;;;93.03;68.90;;;7.80;91.00;;;;;;5058382;28;20339;-46
2023/04/09 03:20:28;;;;;;;98.75;68.88;;;7.80;91.00;;;;;;5072793;28;20094;-48
2023/04/09 03:22:55;;;;;;;101.20;68.22;;;7.80;91.10;;;;;;5072533;28;20032;-46
2023/04/09 03:25:23;;;;;;;101.55;70.80;;;7.80;91.00;;;;;;5074087;28;20032;-46
2023/04/09 03:27:50;;;;;;;100.35;70.80;;;7.70;91.00;;;;;;5083109;28;20077;-45
2023/04/09 03:30:17;;;;;;;95.68;67.78;;;7.70;91.20;;;;;;5094322;28;20028;-50
2023/04/09 03:32:44;;;;;;;91.93;65.30;;;7.70;91.20;;;;;;5057871;28;20039;-48
2023/04/09 03:35:11;;;;;;;89.22;63.00;;;7.70;91.20;;;;;;5057853;28;20081;-48
2023/04/09 03:37:38;;;;;;;102.13;70.78;;;7.80;91.30;;;;;;5075701;28;20434;-46
2023/04/09 03:40:05;;;;;;;110.55;76.50;;;7.70;91.10;;;;;;5058360;28;20035;-46
2023/04/09 03:42:31;;;;;;;106.57;73.93;;;7.70;91.10;;;;;;5058053;28;20039;-45
2023/04/09 03:44:57;;;;;;;90.78;68.45;;;7.70;91.10;;;;;;5077328;28;20024;-48
2023/04/09 03:47:27;;;;;;;108.68;72.40;;;7.70;91.20;;;;;;5076234;28;20405;-45
2023/04/09 03:49:54;;;;;;;107.53;76.72;;;7.70;91.20;;;;;;5082871;28;20074;-46
2023/04/09 03:52:21;;;;;;;107.97;73.70;;;7.70;91.20;;;;;;5075870;28;20744;-47
2023/04/09 03:54:49;;;;;;;106.97;75.75;;;7.70;91.20;;;;;;5075657;28;20103;-46
2023/04/09 03:57:16;;;;;;;103.70;72.88;;;7.70;91.10;;;;;;5075701;28;20028;-46
2023/04/09 03:59:44;;;;;;;104.15;73.57;;;7.60;91.10;;;;;;5075579;28;20024;-46
2023/04/09 04:02:12;;;;;;;102.28;71.13;;;7.60;91.20;;;;;;5093403;28;20024;-48
2023/04/09 04:04:38;;;;;;;96.90;69.72;;;7.60;91.30;;;;;;5095924;28;20031;-46
2023/04/09 04:07:06;;;;;;;104.60;72.85;;;7.70;91.30;;;;;;5095964;28;20479;-47
2023/04/09 04:09:32;;;;;;;101.15;69.72;;;7.70;91.20;;;;;;5094284;28;20028;-46
2023/04/09 04:12:00;;;;;;;104.82;73.05;;;7.70;91.20;;;;;;5093879;28;20042;-50
2023/04/09 04:14:27;;;;;;;104.65;70.78;;;7.70;91.20;;;;;;5080628;28;20074;-47
2023/04/09 04:16:57;;;;;;;117.45;78.72;;;7.70;91.20;;;;;;5080292;28;20027;-45
2023/04/09 04:19:24;;;;;;;114.50;77.63;;;7.70;91.10;;;;;;5075234;28;20358;-45
2023/04/09 04:21:51;;;;;;;106.15;76.18;;;7.70;91.20;;;;;;5075180;28;20496;-48
2023/04/09 04:24:20;;;;;;;110.60;75.65;;;7.70;91.30;;;;;;5075288;28;20060;-51
2023/04/09 04:26:49;;;;;;;115.05;77.75;;;7.70;91.30;;;;;;5073588;28;20111;-49
2023/04/09 04:29:19;;;;;;;112.28;78.15;;;7.70;91.20;;;;;;5074772;28;20032;-47
2023/04/09 04:31:46;;;;;;;116.18;76.82;;;7.70;91.20;;;;;;5080357;28;20056;-48
2023/04/09 04:34:13;;;;;;;117.20;77.47;;;7.70;91.30;;;;;;5090914;28;20077;-45
2023/04/09 04:36:39;;;;;;;104.88;74.80;;;7.70;91.30;;;;;;5094270;28;20664;-48
2023/04/09 04:39:06;;;;;;;109.88;74.38;;;7.70;91.30;;;;;;5094997;28;20032;-45
2023/04/09 04:41:33;;;;;;;113.07;74.63;;;7.70;91.30;;;;;;5075356;28;20044;-48
2023/04/09 04:44:00;;;;;;;119.13;76.63;;;7.70;91.20;;;;;;5077841;28;20031;-46
2023/04/09 04:46:26;;;;;;;108.40;76.18;;;7.70;91.30;;;;;;5089638;28;20085;-48
2023/04/09 04:48:53;;;;;;;109.47;76.00;;;7.70;91.30;;;;;;5084014;28;20032;-45
2023/04/09 04:51:20;;;;;;;111.15;75.00;;;7.70;91.20;;;;;;5074672;28;20097;-45
2023/04/09 04:53:46;;;;;;;109.30;75.72;;;7.70;91.20;;;;;;5060467;28;20119;-45
2023/04/09 04:56:15;;;;;;;115.78;77.55;;;7.70;91.20;;;;;;5065187;28;20059;-46
2023/04/09 04:58:42;;;;;;;103.17;72.83;;;7.70;91.20;;;;;;5074671;28;20024;-46
2023/04/09 05:01:09;;;;;;;99.55;73.75;;;7.70;91.20;;;;;;5083360;28;20013;-46
2023/04/09 05:03:36;;;;;;;120.40;76.72;;;7.70;91.20;;;;;;5074550;28;20416;-46
2023/04/09 05:06:03;;;;;;;112.88;74.70;;;7.70;91.10;;;;;;5072167;28;20043;-45
2023/04/09 05:08:30;;;;;;;107.82;73.70;;;7.70;91.10;;;;;;5090407;28;20039;-46
2023/04/09 05:10:57;;;;;;;112.22;75.78;;;7.70;91.10;;;;;;5076422;28;20116;-45
2023/04/09 05:13:23;;;;;;;116.10;78.60;;;7.70;91.20;;;;;;5074494;28;20028;-46
2023/04/09 05:15:51;;;;;;;105.32;71.90;;;7.70;91.20;;;;;;5085910;28;20025;-50
2023/04/09 05:18:20;;;;;;;117.97;73.13;;;7.70;91.20;;;;;;5092824;28;20095;-47
2023/04/09 05:20:47;;;;;;;114.25;74.30;;;7.80;91.30;;;;;;5076310;28;20318;-48
2023/04/09 05:23:16;;;;;;;102.78;71.32;;;7.80;91.10;;;;;;5092189;28;20031;-50
2023/04/09 05:25:43;;;;;;;117.47;77.25;;;7.80;91.10;;;;;;5093951;28;20034;-48
2023/04/09 05:28:20;;;;;;;106.03;75.40;;;7.80;91.10;;;;;;5092413;28;20032;-46
2023/04/09 05:30:46;;;;;;;109.28;72.13;;;7.80;91.10;;;;;;5091666;28;20024;-47
2023/04/09 05:33:13;;;;;;;108.07;75.30;;;7.90;91.00;;;;;;5092637;28;20058;-46
2023/04/09 05:35:40;;;;;;;104.05;72.53;;;7.90;90.90;;;;;;5091613;28;20038;-46
2023/04/09 05:38:07;;;;;;;116.88;77.65;;;7.90;90.90;;;;;;5091008;28;20360;-46
2023/04/09 05:40:34;;;;;;;100.75;71.68;;;7.90;90.80;;;;;;5072261;28;20082;-47
2023/04/09 05:43:01;;;;;;;108.45;74.28;;;7.90;90.80;;;;;;5069403;28;20028;-51
2023/04/09 05:45:27;;;;;;;103.47;69.55;;;7.90;90.60;;;;;;5090234;28;20114;-46
2023/04/09 05:47:54;;;;;;;102.43;71.55;;;7.90;90.80;;;;;;5066675;28;20045;-47
2023/04/09 05:50:21;;;;;;;104.55;71.75;;;7.90;90.90;;;;;;5069920;28;20031;-46
2023/04/09 05:52:48;;;;;;;105.35;69.70;;;8.00;90.70;;;;;;5074425;28;20117;-45
2023/04/09 05:55:15;;;;;;;100.03;67.30;;;7.90;90.60;;;;;;5091456;28;20491;-47
2023/04/09 05:57:42;;;;;;;100.43;68.53;;;8.00;90.60;;;;;;5093500;28;20035;-45
2023/04/09 06:00:09;;;;;;;97.63;66.57;;;8.00;90.50;;;;;;5083899;28;20027;-47
2023/04/09 06:02:40;;;;;;;100.43;69.50;;;8.10;90.50;;;;;;5073950;28;20039;-46
2023/04/09 06:05:07;;;;;;;97.72;69.40;;;8.10;90.50;;;;;;5073256;28;20036;-44
2023/04/09 06:07:34;;;;;;;103.95;68.28;;;8.20;90.50;;;;;;5083715;28;20441;-51
2023/04/09 06:10:01;;;;;;;88.00;63.45;;;8.20;90.40;;;;;;5095557;28;20052;-45
2023/04/09 06:12:28;;;;;;;99.75;66.68;;;8.20;90.30;;;;;;5110278;28;20427;-48
2023/04/09 06:14:56;;;;;;;91.35;62.35;;;8.30;90.30;;;;;;5113483;28;20020;-46
2023/04/09 06:17:25;;;;;;;87.78;62.75;;;8.30;90.10;;;;;;5085502;28;20378;-46
2023/04/09 06:19:52;;;;;;;95.22;67.38;;;8.30;90.00;;;;;;5073160;28;20032;-45
2023/04/09 06:22:19;;;;;;;95.47;64.30;;;8.40;89.90;;;;;;5072885;28;20041;-46
2023/04/09 06:24:47;;;;;;;96.63;64.70;;;8.40;89.70;;;;;;5073428;28;20720;-46
2023/04/09 06:27:17;;;;;;;83.35;62.28;;;8.40;89.60;;;;;;5078062;28;20056;-50
2023/04/09 06:29:44;;;;;;;;;;;8.40;89.50;;;;;;5061534;28;20036;-48
2023/04/09 06:32:11;;;;;;;93.85;60.65;;;8.40;89.50;;;;;;5067366;28;20053;-46
2023/04/09 06:34:38;;;;;;;88.00;63.50;;;8.50;89.50;;;;;;5073449;28;20595;-50
2023/04/09 06:37:07;;;;;;;91.18;64.38;;;8.60;89.00;;;;;;5055022;28;20346;-47
2023/04/09 06:39:35;;;;;;;82.47;58.70;;;8.60;89.00;;;;;;5075635;28;20025;-47
2023/04/09 06:42:02;;;;;;;89.90;62.95;;;8.70;89.20;;;;;;5057124;28;20657;-45
2023/04/09 06:44:29;;;;;;;88.07;60.83;;;8.80;88.80;;;;;;5077388;28;20032;-48
2023/04/09 06:46:55;;;;;;;84.97;60.10;;;8.90;88.70;;;;;;5063801;28;20915;-46
2023/04/09 06:49:25;;;;;;;80.28;59.10;;;8.90;88.20;;;;;;5085322;28;20468;-45
2023/04/09 06:51:52;;;;;;;77.85;57.35;;;9.00;88.30;;;;;;5089759;28;20369;-47
2023/04/09 06:54:22;;;;;;;78.35;53.72;;;9.10;88.00;;;;;;5088423;28;20566;-48
2023/04/09 06:56:48;;;;;;;89.22;60.03;;;9.10;87.50;;;;;;5086224;28;20032;-48
2023/04/09 06:59:15;;;;;;;74.40;57.03;;;9.20;87.30;;;;;;5078369;28;20103;-49
2023/04/09 07:01:42;;;;;;;79.03;55.60;;;9.20;87.30;;;;;;5070659;28;20028;-46
2023/04/09 07:04:08;;;;;;;77.10;54.40;;;9.30;86.60;;;;;;5093382;28;20034;-46
2023/04/09 07:06:39;;;;;;;73.65;51.50;;;9.40;86.50;;;;;;5089343;28;20594;-46
2023/04/09 07:09:05;;;;;;;71.40;48.83;;;9.50;86.30;;;;;;5096329;28;20162;-46
2023/04/09 07:11:32;;;;;;;67.57;47.42;;;9.60;84.70;;;;;;5095419;28;20036;-48
2023/04/09 07:13:59;;;;;;;56.08;44.20;;;9.60;84.00;;;;;;5073629;28;20104;-47
2023/04/09 07:16:24;;;;;;;52.55;41.45;;;9.80;83.30;;;;;;5055609;28;20133;-50
2023/04/09 07:18:51;;;;;;;54.83;40.22;;;9.90;82.10;;;;;;5075927;28;20595;-49
2023/04/09 07:21:18;;;;;;;48.70;40.28;;;9.90;81.20;;;;;;5086560;28;20024;-47
2023/04/09 07:23:45;;;;;;;50.85;38.25;;;10.10;80.20;;;;;;5095182;28;20077;-46
2023/04/09 07:26:12;;;;;;;47.80;37.85;;;10.30;79.80;;;;;;5095243;28;20024;-47
2023/04/09 07:28:41;;;;;;;47.55;36.20;;;10.50;79.20;;;;;;5093798;28;20172;-48
2023/04/09 07:31:12;;;;;;;47.45;36.15;;;10.80;78.00;;;;;;5087867;28;20025;-47
2023/04/09 07:33:39;;;;;;;43.95;31.30;;;11.20;78.10;;;;;;5089879;28;20028;-48
2023/04/09 07:36:07;;;;;;;36.17;29.92;;;11.40;75.70;;;;;;5072738;28;20273;-50
2023/04/09 07:38:34;;;;;;;36.08;27.80;;;11.50;73.60;;;;;;5075830;28;20384;-49
2023/04/09 07:41:03;;;;;;;33.72;28.40;;;11.40;73.80;;;;;;5075758;28;20032;-46
2023/04/09 07:43:30;;;;;;;32.00;25.45;;;11.50;74.10;;;;;;5085094;28;20100;-46
2023/04/09 07:46:00;;;;;;;32.03;26.98;;;11.40;73.10;;;;;;5073951;28;20038;-50
2023/04/09 07:48:27;;;;;;;35.63;29.05;;;11.40;71.90;;;;;;5075715;28;20115;-48
2023/04/09 07:50:54;;;;;;;38.90;30.52;;;11.20;72.80;;;;;;5077531;28;20040;-47
2023/04/09 07:53:21;;;;;;;39.05;30.95;;;11.20;72.60;;;;;;5079691;28;20182;-46
2023/04/09 07:55:50;;;;;;;36.88;30.38;;;11.00;73.40;;;;;;5086684;28;20033;-48
2023/04/09 07:58:19;;;;;;;42.40;32.80;;;10.90;73.60;;;;;;5075433;28;20103;-49
2023/04/09 08:00:47;;;;;;;39.35;29.48;;;10.90;72.80;;;;;;5064297;28;20151;-46
2023/04/09 08:03:14;;;;;;;41.17;30.48;;;10.80;72.70;;;;;;5076356;28;20020;-47
2023/04/09 08:05:41;;;;;;;40.65;31.02;;;10.60;73.20;;;;;;5092132;28;20107;-48
2023/04/09 08:08:08;;;;;;;44.58;32.85;;;10.60;73.90;;;;;;5094608;28;20031;-46
2023/04/09 08:10:35;;;;;;;40.45;32.58;;;10.50;73.30;;;;;;5086780;28;20079;-49
2023/04/09 08:13:01;;;;;;;38.00;30.80;;;10.40;73.90;;;;;;5078416;28;20035;-47
2023/04/09 08:15:28;;;;;;;38.92;28.88;;;10.50;73.30;;;;;;5077756;28;20020;-51
2023/04/09 08:17:55;;;;;;;37.80;28.75;;;10.50;73.20;;;;;;5089650;28;20507;-51
2023/04/09 08:20:22;;;;;;;39.83;28.10;;;10.60;72.10;;;;;;5094104;28;20039;-46
2023/04/09 08:22:48;;;;;;;38.72;27.55;;;10.50;71.60;;;;;;5095187;28;20452;-50
2023/04/09 08:25:14;;;;;;;34.85;27.15;;;10.40;73.00;;;;;;5073729;28;20111;-45
2023/04/09 08:27:41;;;;;;;33.58;26.33;;;10.40;72.90;;;;;;5082550;28;20032;-48
2023/04/09 08:30:12;;;;;;;34.58;26.52;;;10.50;74.20;;;;;;5080976;28;20031;-47
2023/04/09 08:32:40;;;;;;;36.35;25.88;;;10.50;73.70;;;;;;5078406;28;20451;-46
2023/04/09 08:35:07;;;;;;;34.58;25.13;;;10.70;73.40;;;;;;5090935;28;20035;-46
2023/04/09 08:37:35;;;;;;;29.38;22.60;;;10.70;71.90;;;;;;5090656;28;20021;-47
2023/04/09 08:40:01;;;;;;;33.30;24.33;;;10.70;72.80;;;;;;5093107;28;20031;-46
2023/04/09 08:42:30;;;;;;;28.02;21.38;;;10.80;71.50;;;;;;5092742;28;20020;-50
2023/04/09 08:45:04;;;;;;;28.75;21.77;;;10.60;72.00;;;;;;5076577;28;20111;-46
2023/04/09 08:47:32;;;;;;;27.58;21.30;;;10.60;72.60;;;;;;5072763;28;20032;-46
2023/04/09 08:49:59;;;;;;;31.98;22.25;;;10.50;72.60;;;;;;5053256;28;20024;-45
2023/04/09 08:52:33;;;;;;;30.00;21.40;;;10.50;72.90;;;;;;5072607;28;20040;-46
2023/04/09 08:55:00;;;;;;;25.60;20.20;;;10.40;73.20;;;;;;5080424;28;20404;-47
2023/04/09 08:57:27;;;;;;;27.05;20.45;;;10.40;74.30;;;;;;5080881;28;20461;-46
2023/04/09 08:59:54;;;;;;;26.92;20.17;;;10.40;74.30;;;;;;5090218;28;20078;-48
2023/04/09 09:02:24;;;;;;;24.98;18.80;;;10.50;74.10;;;;;;5065204;28;20033;-47
2023/04/09 09:04:59;;;;;;;24.30;19.33;;;10.50;72.90;;;;;;5078164;28;20032;-49
2023/04/09 09:07:30;;;;;;;23.85;19.02;;;10.50;73.10;;;;;;5080019;28;20511;-48
2023/04/09 09:10:15;;;;;;;25.90;19.08;;;10.70;74.00;;;;;;5087928;28;20816;-46
2023/04/09 09:12:41;;;;;;;22.23;15.65;;;10.80;72.70;;;;;;5083379;28;20039;-47
2023/04/09 09:15:46;;;;;;;22.45;16.30;;;10.80;72.30;;;;;;5084548;28;20020;-46
2023/04/09 09:18:13;;;;;;;21.77;16.30;;;10.80;72.40;;;;;;5067037;28;20016;-50
2023/04/09 09:20:40;;;;;;;22.27;16.55;;;11.00;73.40;;;;;;5062186;28;20077;-47
2023/04/09 09:23:07;;;;;;;23.15;16.80;;;11.10;72.50;;;;;;5077435;28;20365;-47
2023/04/09 09:25:38;;;;;;;19.95;15.65;;;11.00;71.30;;;;;;5084342;28;20451;-46
2023/04/09 09:28:10;;;;;;;21.30;15.43;;;11.10;70.40;;;;;;5079202;28;20020;-48
2023/04/09 09:30:40;;;;;;;24.77;18.58;;;11.10;70.00;;;;;;5071574;28;20032;-46
2023/04/09 09:33:08;;;;;;;21.98;19.45;;;11.10;70.10;;;;;;5083430;28;20115;-45
2023/04/09 09:35:56;;;;;;;25.13;20.13;;;11.30;70.90;;;;;;5082018;28;20042;-47
2023/04/09 09:38:25;;;;;;;28.60;22.60;;;11.40;69.80;;;;;;5064625;28;20035;-50
2023/04/09 09:40:55;;;;;;;28.63;21.67;;;11.50;69.50;;;;;;5083154;28;20377;-46
2023/04/09 09:43:40;;;;;;;29.98;24.00;;;11.60;70.00;;;;;;5073909;28;20111;-48
2023/04/09 09:46:10;;;;;;;27.52;24.30;;;11.70;68.10;;;;;;5065605;28;20096;-47
2023/04/09 09:48:38;;;;;;;18.38;15.48;;;11.80;68.90;;;;;;5089960;28;20016;-46
2023/04/09 09:51:09;;;;;;;21.50;16.38;;;11.50;67.80;;;;;;5054365;28;20040;-48
2023/04/09 09:53:38;;;;;;;24.52;19.60;;;11.60;69.00;;;;;;5073199;28;20025;-49
2023/04/09 09:56:07;;;;;;;21.90;19.48;;;11.80;68.60;;;;;;5073332;28;20103;-45
2023/04/09 09:59:22;;;;;;;29.98;23.27;;;12.10;69.60;;;;;;5074091;28;20032;-49
2023/04/09 10:02:15;;;;;;;28.15;22.30;;;12.20;67.40;;;;;;5068386;28;20085;-46
2023/04/09 10:04:42;;;;;;;25.92;22.63;;;12.20;66.20;;;;;;5091976;28;20036;-48
2023/04/09 10:07:10;;;;;;;29.52;25.30;;;12.30;67.50;;;;;;5083668;28;20028;-46
2023/04/09 10:09:43;;;;;;;27.65;22.52;;;12.30;65.70;;;;;;5085955;28;20081;-47
2023/04/09 10:12:10;;;;;;;29.95;25.40;;;12.40;66.80;;;;;;5081685;28;20020;-46
2023/04/09 10:14:42;;;;;;;28.02;24.05;;;12.40;65.70;;;;;;5088123;28;20016;-47
2023/04/09 10:17:09;;;;;;;26.75;23.02;;;12.30;66.30;;;;;;5062160;28;20016;-48
2023/04/09 10:19:41;;;;;;;29.08;24.05;;;12.40;66.50;;;;;;5072715;28;20325;-47
2023/04/09 10:22:16;;;;;;;25.48;20.77;;;12.60;67.00;;;;;;5080016;28;20110;-50
2023/04/09 10:24:44;;;;;;;23.45;20.95;;;12.80;66.10;;;;;;5077265;28;20020;-47
2023/04/09 10:27:14;;;;;;;27.92;22.52;;;12.90;65.40;;;;;;5090417;28;20107;-50
2023/04/09 10:29:52;;;;;;;28.02;23.95;;;12.90;63.90;;;;;;5084520;28;20030;-47
2023/04/09 10:32:22;;;;;;;28.02;24.83;;;12.80;65.40;;;;;;5057952;28;20043;-47
2023/04/09 10:34:49;;;;;;;28.67;24.23;;;12.70;65.70;;;;;;5081437;28;20121;-47
2023/04/09 10:37:25;;;;;;;27.58;22.40;;;12.70;66.50;;;;;;5080415;28;20528;-47
2023/04/09 10:39:52;;;;;;;27.60;24.60;;;13.00;66.90;;;;;;5081559;28;20019;-46
2023/04/09 10:42:31;;;;;;;32.05;27.40;;;13.30;66.00;;;;;;5091780;28;20074;-47
2023/04/09 10:45:15;;;;;;;30.40;26.92;;;13.40;63.60;;;;;;5064071;28;20016;-50
2023/04/09 10:47:42;;;;;;;32.63;26.95;;;13.20;64.50;;;;;;5081578;28;20025;-47
2023/04/09 10:50:27;;;;;;;31.20;26.92;;;13.20;65.80;;;;;;5085940;28;20403;-48
2023/04/09 10:52:59;;;;;;;28.85;25.75;;;13.50;65.80;;;;;;5085054;28;20111;-47
2023/04/09 10:55:47;;;;;;;27.95;24.98;;;13.80;63.60;;;;;;5084948;28;20082;-49
2023/04/09 10:58:17;;;;;;;26.50;23.60;;;13.90;63.60;;;;;;5068980;28;20047;-50
2023/04/09 11:00:49;;;;;;;31.38;26.73;;;14.10;63.00;;;;;;5074746;28;20056;-47
2023/04/09 11:03:20;;;;;;;26.63;23.75;;;13.70;63.00;;;;;;5072287;28;20047;-47
2023/04/09 11:05:55;;;;;;;28.23;24.63;;;13.80;62.80;;;;;;5073776;28;20038;-48
2023/04/09 11:08:22;;;;;;;29.38;25.60;;;13.90;63.80;;;;;;5073841;28;20111;-47
2023/04/09 11:10:57;;;;;;;27.05;24.15;;;13.80;62.70;;;;;;5085258;28;20114;-46
2023/04/09 11:13:23;;;;;;;28.73;24.58;;;13.90;64.40;;;;;;5072048;28;20327;-46
2023/04/09 11:15:50;;;;;;;28.05;25.08;;;14.10;64.10;;;;;;5079561;28;20026;-47
2023/04/09 11:18:35;;;;;;;26.58;23.63;;;14.10;62.10;;;;;;5085608;28;20038;-49
2023/04/09 11:21:03;;;;;;;27.23;24.33;;;14.10;62.20;;;;;;5075586;28;20035;-48
2023/04/09 11:23:34;;;;;;;25.17;22.55;;;14.00;60.70;;;;;;5074285;28;20158;-51
2023/04/09 11:26:04;;;;;;;23.15;20.80;;;14.00;62.10;;;;;;5079849;28;20032;-48
2023/04/09 11:28:30;;;;;;;23.27;20.70;;;14.00;62.20;;;;;;5065967;28;20046;-47
2023/04/09 11:30:57;;;;;;;25.73;21.85;;;14.20;61.80;;;;;;5065902;28;20029;-49
2023/04/09 11:33:34;;;;;;;24.67;21.98;;;14.40;62.90;;;;;;5077609;28;20109;-47
2023/04/09 11:36:03;;;;;;;28.55;22.90;;;14.60;61.30;;;;;;5077025;28;20024;-48
2023/04/09 11:38:30;;;;;;;24.42;21.23;;;14.60;60.80;;;;;;5065778;28;20358;-49
2023/04/09 11:41:00;;;;;;;22.35;19.95;;;14.40;61.80;;;;;;5059748;28;20067;-49
2023/04/09 11:43:26;;;;;;;;;;;14.80;61.60;;;;;;5068118;28;20041;-50
2023/04/09 11:45:53;;;;;;;21.83;19.52;;;14.80;60.10;;;;;;5069830;28;19999;-48
2023/04/09 11:48:22;;;;;;;23.20;20.10;;;14.80;59.60;;;;;;5067534;28;20345;-46
2023/04/09 11:50:52;;;;;;;23.70;21.10;;;14.90;61.70;;;;;;5083465;28;20020;-47
2023/04/09 11:53:20;;;;;;;25.00;20.80;;;14.90;60.10;;;;;;5081440;28;20174;-48
2023/04/09 11:55:51;;;;;;;22.85;20.45;;;14.80;60.30;;;;;;5084006;28;20028;-46
2023/04/09 11:58:19;;;;;;;23.88;20.77;;;14.90;61.10;;;;;;5073341;28;20024;-48
2023/04/09 12:00:47;;;;;;;23.85;20.52;;;14.80;59.50;;;;;;5079240;28;20031;-50
2023/04/09 12:03:14;;;;;;;25.60;20.67;;;14.60;61.70;;;;;;5080236;28;20024;-50
2023/04/09 12:05:48;;;;;;;25.25;20.90;;;14.70;62.50;;;;;;5081404;28;20035;-47
2023/04/09 12:08:17;;;;;;;22.58;20.15;;;14.70;61.40;;;;;;5080123;28;20146;-49
2023/04/09 12:10:44;;;;;;;22.35;19.92;;;14.80;62.30;;;;;;5076304;28;20175;-48
2023/04/09 12:13:12;;;;;;;22.85;19.55;;;14.20;61.50;;;;;;5088156;28;20055;-50
2023/04/09 12:15:42;;;;;;;24.15;20.50;;;14.50;62.40;;;;;;5076443;28;20031;-48
2023/04/09 12:18:11;;;;;;;22.05;19.25;;;14.60;62.40;;;;;;5073786;28;20021;-47
2023/04/09 12:20:59;;;;;;;24.88;21.15;;;14.40;61.90;;;;;;5074906;28;20052;-52
2023/04/09 12:23:26;;;;;;;22.52;19.65;;;14.30;62.20;;;;;;5074936;28;20028;-49
2023/04/09 12:25:54;;;;;;;23.40;20.90;;;14.50;62.70;;;;;;5057155;28;20089;-48
2023/04/09 12:28:24;;;;;;;21.08;18.80;;;14.20;61.30;;;;;;5091054;28;20020;-50
2023/04/09 12:30:53;;;;;;;24.75;19.83;;;14.20;61.80;;;;;;5078251;28;20480;-47
2023/04/09 12:33:22;;;;;;;22.85;19.20;;;14.30;61.80;;;;;;5079308;28;20066;-47
2023/04/09 12:35:51;;;;;;;22.38;18.65;;;14.40;62.80;;;;;;5093842;28;20016;-50
2023/04/09 12:38:24;;;;;;;23.57;20.90;;;14.50;61.70;;;;;;5083545;28;20020;-48
2023/04/09 12:40:53;;;;;;;24.17;19.00;;;14.60;63.20;;;;;;5071170;28;20313;-48
2023/04/09 12:43:20;;;;;;;23.55;20.08;;;14.70;61.10;;;;;;5086635;28;20024;-47